Time;durP1;ratioP1;P1;durP2;ratioP2;P2;SDS_P1;SDS_P2;PMS_P1;PMS_P2;Temp;Humidity;BMP_temperature;BMP_pressure;BME280_temperature;BME280_humidity;BME280_pressure;Samples;Min_cycle;Max_cycle;Signal;HPM_P1;HPM_P2
2022/01/12 00:01:15;;;;;;;31.75;16.02;;;4.30;99.90;;;;;;5054551;28;20481;-76
2022/01/12 00:03:45;;;;;;;34.33;17.52;;;4.30;99.90;;;;;;5054201;28;20017;-76
2022/01/12 00:06:11;;;;;;;33.83;17.55;;;4.30;99.90;;;;;;5054345;28;20025;-77
2022/01/12 00:08:37;;;;;;;36.47;17.23;;;4.30;99.90;;;;;;5054117;28;20025;-79
2022/01/12 00:11:07;;;;;;;31.02;17.35;;;4.40;99.90;;;;;;5053806;28;20037;-77
2022/01/12 00:13:34;;;;;;;32.67;16.58;;;4.30;99.90;;;;;;5053516;28;20025;-76
2022/01/12 00:16:02;;;;;;;33.67;17.60;;;4.20;99.90;;;;;;5052081;28;20112;-79
2022/01/12 00:18:29;;;;;;;30.27;16.33;;;4.30;99.90;;;;;;5040469;28;20025;-79
2022/01/12 00:20:56;;;;;;;34.03;16.20;;;4.30;99.90;;;;;;5041295;28;20428;-79
2022/01/12 00:23:22;;;;;;;26.27;16.23;;;4.30;99.90;;;;;;5048335;28;20017;-78
2022/01/12 00:26:04;;;;;;;32.25;16.45;;;4.40;99.90;;;;;;5052560;28;20033;-78
2022/01/12 00:34:11;;;;;;;33.88;16.95;;;4.30;99.90;;;;;;5072208;28;20438;-78
2022/01/12 00:36:38;;;;;;;31.80;17.08;;;4.40;99.90;;;;;;5053560;28;20036;-78
2022/01/12 00:39:08;;;;;;;32.17;18.60;;;4.50;99.90;;;;;;5052332;28;20029;-78
2022/01/12 00:41:37;;;;;;;32.35;19.35;;;4.40;99.90;;;;;;5068959;28;20090;-78
2022/01/12 00:44:08;;;;;;;29.23;16.15;;;4.50;99.90;;;;;;5053587;28;20068;-78
2022/01/12 00:46:35;;;;;;;28.30;16.50;;;4.50;99.90;;;;;;5053368;28;20074;-78
2022/01/12 00:49:05;;;;;;;35.97;17.85;;;4.50;99.90;;;;;;5051799;28;20492;-78
2022/01/12 00:51:33;;;;;;;35.05;16.98;;;4.40;99.90;;;;;;5053347;28;20025;-78
2022/01/12 00:54:01;;;;;;;28.35;16.27;;;4.50;99.90;;;;;;5052162;28;20411;-79
2022/01/12 00:56:28;;;;;;;31.00;15.75;;;4.50;99.90;;;;;;5053240;28;20371;-79
2022/01/12 00:58:57;;;;;;;32.60;16.98;;;4.50;99.90;;;;;;5069151;28;20085;-78
2022/01/12 01:01:24;;;;;;;29.10;15.88;;;4.50;99.90;;;;;;5072361;28;20032;-77
2022/01/12 01:03:51;;;;;;;30.88;16.92;;;4.60;99.90;;;;;;5051893;28;20036;-77
2022/01/12 01:06:17;;;;;;;27.42;16.05;;;4.70;99.90;;;;;;5053371;28;20703;-77
2022/01/12 01:08:48;;;;;;;32.25;16.10;;;4.60;99.90;;;;;;5051180;28;20025;-77
2022/01/12 01:11:16;;;;;;;34.35;17.05;;;4.60;99.90;;;;;;5049974;28;20040;-78
2022/01/12 01:13:59;;;;;;;33.22;17.08;;;4.50;99.90;;;;;;5051371;28;20454;-78
2022/01/12 01:27:16;;;;;;;32.22;17.00;;;4.70;99.90;;;;;;5071023;28;20040;-78
2022/01/12 01:29:42;;;;;;;22.08;14.15;;;4.70;99.90;;;;;;5071508;28;20354;-78
2022/01/12 01:32:09;;;;;;;32.90;16.00;;;4.70;99.90;;;;;;5062650;28;20029;-78
2022/01/12 01:34:42;;;;;;;31.20;16.00;;;4.60;99.90;;;;;;5055271;28;20365;-78
2022/01/12 01:37:11;;;;;;;32.80;16.63;;;4.60;99.90;;;;;;5054015;28;20092;-78
2022/01/12 01:39:39;;;;;;;28.83;15.77;;;4.70;99.90;;;;;;5054022;28;20536;-78
2022/01/12 01:42:14;;;;;;;31.50;15.95;;;4.70;99.90;;;;;;5053751;28;20040;-78
2022/01/12 01:55:32;;;;;;;31.10;15.18;;;4.60;99.90;;;;;;5035061;28;20117;-79
2022/01/12 01:57:59;;;;;;;30.48;15.73;;;4.60;99.90;;;;;;5039024;28;21287;-79
2022/01/12 02:00:28;;;;;;;26.02;15.10;;;4.60;99.90;;;;;;5071971;28;20062;-79
2022/01/12 02:02:57;;;;;;;25.88;15.32;;;4.60;99.90;;;;;;5059706;28;20465;-79
2022/01/12 02:05:26;;;;;;;28.75;15.93;;;4.70;99.90;;;;;;5055818;28;20209;-79
2022/01/12 02:07:52;;;;;;;25.25;13.43;;;4.70;99.90;;;;;;5054524;28;20467;-79
2022/01/12 02:10:17;;;;;;;25.08;14.93;;;4.70;99.90;;;;;;5055908;28;20061;-79
2022/01/12 02:12:46;;;;;;;28.35;15.88;;;4.70;99.90;;;;;;5054441;28;20025;-79
2022/01/12 02:15:19;;;;;;;27.88;15.90;;;4.70;99.90;;;;;;5055995;28;20055;-79
2022/01/12 02:40:29;;;;;;;29.20;16.27;;;4.70;99.90;;;;;;5061013;28;20405;-78
2022/01/12 02:43:06;;;;;;;31.42;15.63;;;4.70;99.90;;;;;;5065344;28;20047;-78
2022/01/12 02:53:41;;;;;;;31.25;16.05;;;4.80;99.90;;;;;;5075741;28;20119;-78
2022/01/12 02:56:17;;;;;;;34.83;15.88;;;4.70;99.90;;;;;;5065300;28;20048;-78
2022/01/12 02:58:48;;;;;;;29.27;15.73;;;4.70;99.90;;;;;;5054098;28;20044;-78
2022/01/12 03:01:40;;;;;;;29.13;15.90;;;4.70;99.90;;;;;;5053926;28;20021;-78
2022/01/12 03:04:09;;;;;;;28.70;16.48;;;4.80;99.90;;;;;;5055210;28;20111;-78
2022/01/12 03:06:39;;;;;;;26.08;15.02;;;4.80;99.90;;;;;;5054101;28;20389;-78
2022/01/12 03:09:09;;;;;;;30.42;15.23;;;4.80;99.90;;;;;;5055307;28;20037;-78
2022/01/12 03:11:40;;;;;;;33.20;15.77;;;4.80;99.90;;;;;;5059288;28;20459;-78
2022/01/12 03:14:10;;;;;;;30.95;17.77;;;4.80;99.90;;;;;;5052546;28;20485;-76
2022/01/12 03:16:41;;;;;;;27.48;15.20;;;4.90;99.90;;;;;;5035517;28;20084;-76
2022/01/12 03:19:07;;;;;;;29.05;15.20;;;4.80;99.90;;;;;;5041361;28;20035;-76
2022/01/12 03:21:34;;;;;;;30.85;16.45;;;4.80;99.90;;;;;;5053237;28;20330;-76
2022/01/12 03:24:01;;;;;;;25.17;14.52;;;4.80;99.90;;;;;;5053497;28;20095;-76
2022/01/12 03:26:29;;;;;;;32.33;16.45;;;4.80;99.90;;;;;;5052397;28;20017;-76
2022/01/12 03:28:58;;;;;;;28.27;16.48;;;4.90;99.90;;;;;;5053610;28;20029;-76
2022/01/12 03:31:30;;;;;;;25.13;14.88;;;4.90;99.90;;;;;;5053122;28;20017;-77
2022/01/12 03:34:08;;;;;;;28.33;15.77;;;4.90;99.90;;;;;;5054520;28;20021;-76
2022/01/12 03:37:05;;;;;;;26.00;15.25;;;4.90;99.90;;;;;;5054789;28;20028;-76
2022/01/12 03:39:26;;;;;;;24.95;13.93;;;4.90;99.90;;;;;;5053168;28;20449;-76
2022/01/12 03:41:52;;;;;;;24.08;15.38;;;4.90;99.90;;;;;;5053208;28;20053;-76
2022/01/12 03:44:18;;;;;;;27.38;15.45;;;4.90;99.90;;;;;;5053219;28;20060;-76
2022/01/12 03:46:50;;;;;;;27.00;16.33;;;4.90;99.90;;;;;;5055056;28;20021;-76
2022/01/12 03:49:21;;;;;;;33.35;15.70;;;4.90;99.90;;;;;;5054799;28;20060;-78
2022/01/12 03:51:51;;;;;;;28.55;16.13;;;4.90;99.90;;;;;;5054612;28;20017;-78
2022/01/12 03:54:18;;;;;;;27.60;16.58;;;4.90;99.90;;;;;;5054049;28;20040;-77
2022/01/12 03:56:44;;;;;;;29.13;16.27;;;4.90;99.90;;;;;;5041395;28;20097;-79
2022/01/12 03:59:10;;;;;;;33.55;17.35;;;4.80;99.90;;;;;;5054140;28;20029;-77
2022/01/12 04:01:36;;;;;;;26.08;15.30;;;4.80;99.90;;;;;;5054777;28;20525;-77
2022/01/12 04:04:08;;;;;;;32.47;17.25;;;4.80;99.90;;;;;;5054462;28;20124;-77
2022/01/12 04:09:20;;;;;;;31.70;17.45;;;4.70;99.90;;;;;;5053381;28;20043;-78
2022/01/12 04:11:46;;;;;;;37.78;19.30;;;4.80;99.90;;;;;;5053103;28;20037;-77
2022/01/12 04:14:12;;;;;;;35.83;19.88;;;4.70;99.90;;;;;;5054201;28;20776;-78
2022/01/12 04:16:38;;;;;;;36.55;20.13;;;4.60;99.90;;;;;;5053014;28;20021;-77
2022/01/12 04:19:04;;;;;;;36.85;20.45;;;4.60;99.90;;;;;;5052932;28;20018;-78
2022/01/12 04:21:42;;;;;;;39.97;20.73;;;4.60;99.90;;;;;;5054275;28;20017;-76
2022/01/12 04:24:10;;;;;;;39.33;21.50;;;4.60;99.90;;;;;;5041372;28;20045;-78
2022/01/12 04:26:39;;;;;;;39.92;22.25;;;4.60;99.90;;;;;;5053534;28;20032;-77
2022/01/12 04:29:11;;;;;;;47.40;23.15;;;4.60;99.90;;;;;;5051629;28;20031;-77
2022/01/12 04:31:38;;;;;;;43.92;23.20;;;4.70;99.90;;;;;;5052967;28;20049;-79
2022/01/12 04:34:06;;;;;;;48.28;24.60;;;4.70;99.90;;;;;;5045781;28;20032;-77
2022/01/12 04:36:33;;;;;;;45.92;23.48;;;4.70;99.90;;;;;;5054026;28;20025;-77
2022/01/12 04:38:59;;;;;;;48.97;24.52;;;4.70;99.90;;;;;;5051727;28;20043;-78
2022/01/12 04:41:26;;;;;;;53.50;25.25;;;4.70;99.90;;;;;;5053990;28;20013;-77
2022/01/12 04:43:53;;;;;;;51.33;27.17;;;4.80;99.90;;;;;;5052205;28;20025;-77
2022/01/12 04:46:28;;;;;;;58.13;27.70;;;4.80;99.90;;;;;;5052220;28;20029;-77
2022/01/12 04:49:07;;;;;;;54.90;27.70;;;4.80;99.90;;;;;;5053664;28;20032;-76
2022/01/12 04:51:34;;;;;;;52.70;26.00;;;4.80;99.90;;;;;;5053546;28;20061;-78
2022/01/12 04:54:02;;;;;;;53.10;27.65;;;4.70;99.90;;;;;;5053261;28;20049;-78
2022/01/12 04:56:29;;;;;;;58.70;27.08;;;4.70;99.90;;;;;;5039857;28;20048;-78
2022/01/12 04:58:56;;;;;;;59.88;29.00;;;4.70;99.90;;;;;;5046406;28;20021;-78
2022/01/12 05:01:25;;;;;;;52.63;27.85;;;4.70;99.90;;;;;;5053178;28;20036;-77
2022/01/12 05:06:54;;;;;;;61.60;27.58;;;4.70;99.90;;;;;;5052688;28;20091;-79
2022/01/12 05:14:53;;;;;;;55.67;29.50;;;4.80;99.90;;;;;;5052361;28;20493;-76
2022/01/12 05:17:22;;;;;;;60.72;30.00;;;4.70;99.90;;;;;;5051658;28;20124;-77
2022/01/12 05:19:50;;;;;;;63.15;31.77;;;4.80;99.90;;;;;;5053230;28;20078;-78
2022/01/12 05:22:17;;;;;;;69.63;32.50;;;4.80;99.90;;;;;;5051748;28;20358;-78
2022/01/12 05:24:45;;;;;;;69.97;34.50;;;4.70;99.90;;;;;;5052262;28;20078;-78
2022/01/12 05:27:11;;;;;;;64.43;34.05;;;4.80;99.90;;;;;;5051787;28;20074;-78
2022/01/12 05:29:40;;;;;;;62.92;32.88;;;4.80;99.90;;;;;;5059678;28;20029;-78
2022/01/12 05:32:06;;;;;;;76.45;36.15;;;4.80;99.90;;;;;;5045311;28;20025;-78
2022/01/12 05:34:32;;;;;;;75.30;37.15;;;4.80;99.90;;;;;;5053682;28;20035;-77
2022/01/12 05:36:58;;;;;;;72.60;35.70;;;4.70;99.90;;;;;;5053010;28;20025;-77
2022/01/12 05:39:23;;;;;;;70.28;35.50;;;4.70;99.90;;;;;;5052029;28;20433;-78
2022/01/12 05:41:50;;;;;;;83.63;35.83;;;4.80;99.90;;;;;;5052828;28;20056;-77
2022/01/12 05:44:17;;;;;;;79.85;35.95;;;4.90;99.90;;;;;;5052704;28;20083;-78
2022/01/12 05:46:43;;;;;;;71.35;34.00;;;4.80;99.90;;;;;;5051435;28;20020;-78
2022/01/12 05:51:59;;;;;;;74.43;35.78;;;4.90;99.90;;;;;;5043348;28;20096;-81
2022/01/12 05:54:24;;;;;;;68.78;33.88;;;4.80;99.90;;;;;;5051334;28;20025;-80
2022/01/12 05:56:56;;;;;;;74.38;34.75;;;4.80;99.90;;;;;;5038719;28;20032;-81
2022/01/12 05:59:28;;;;;;;77.55;38.33;;;4.80;99.90;;;;;;5047775;28;20428;-80
2022/01/12 06:01:54;;;;;;;74.85;36.17;;;4.80;99.90;;;;;;5051179;28;20040;-81
2022/01/12 06:04:20;;;;;;;98.80;41.17;;;4.80;99.90;;;;;;5052723;28;20098;-80
2022/01/12 06:06:47;;;;;;;75.22;35.92;;;4.80;99.90;;;;;;5052301;28;20465;-80
2022/01/12 06:09:16;;;;;;;80.72;36.90;;;4.80;99.90;;;;;;5052744;28;20074;-80
2022/01/12 06:11:42;;;;;;;79.88;36.35;;;4.90;99.90;;;;;;5052573;28;20036;-80
2022/01/12 06:14:08;;;;;;;88.28;38.40;;;4.80;99.90;;;;;;5052552;28;20133;-80
2022/01/12 06:16:35;;;;;;;90.07;39.08;;;4.80;99.90;;;;;;5052573;28;20458;-82
2022/01/12 06:19:03;;;;;;;82.63;38.38;;;4.90;99.90;;;;;;5055354;28;20039;-84
2022/01/12 06:21:32;;;;;;;82.90;39.40;;;4.80;99.90;;;;;;5054683;28;20495;-79
2022/01/12 06:23:57;;;;;;;106.75;42.25;;;4.90;99.90;;;;;;5036387;28;20034;-80
2022/01/12 06:26:27;;;;;;;92.78;39.33;;;4.80;99.90;;;;;;5051939;28;20440;-80
2022/01/12 06:29:24;;;;;;;94.07;40.45;;;4.80;99.90;;;;;;5056068;28;20822;-80
2022/01/12 06:31:46;;;;;;;104.38;44.00;;;4.90;99.90;;;;;;5056024;28;20440;-79
2022/01/12 06:34:12;;;;;;;94.95;41.50;;;4.80;99.90;;;;;;5055799;28;20032;-80
2022/01/12 06:36:44;;;;;;;122.00;47.65;;;4.70;99.90;;;;;;5036134;28;20485;-79
2022/01/12 06:39:14;;;;;;;101.22;43.92;;;4.80;99.90;;;;;;5036307;28;20029;-81
2022/01/12 06:41:41;;;;;;;100.18;42.05;;;4.90;99.90;;;;;;5036092;28;20024;-80
2022/01/12 06:44:08;;;;;;;94.68;41.20;;;4.80;99.90;;;;;;5036111;28;20065;-79
2022/01/12 06:46:37;;;;;;;112.50;43.40;;;4.80;99.90;;;;;;5034657;28;20068;-80
2022/01/12 06:49:06;;;;;;;119.32;43.30;;;4.90;99.90;;;;;;5034546;28;20108;-80
2022/01/12 06:51:32;;;;;;;111.93;44.78;;;4.80;99.90;;;;;;5036082;28;20022;-80
2022/01/12 06:54:00;;;;;;;106.55;41.50;;;4.90;99.90;;;;;;5035909;28;20029;-80
2022/01/12 06:56:27;;;;;;;109.18;42.47;;;4.90;99.90;;;;;;5035374;28;20014;-79
2022/01/12 06:58:54;;;;;;;98.70;38.90;;;4.90;99.90;;;;;;5050320;28;20096;-79
2022/01/12 07:01:21;;;;;;;109.10;41.50;;;4.90;99.90;;;;;;5049026;28;20470;-79
2022/01/12 07:03:49;;;;;;;100.57;38.65;;;4.90;99.90;;;;;;5035488;28;20482;-79
2022/01/12 07:06:18;;;;;;;119.93;42.85;;;4.90;99.90;;;;;;5035700;28;20021;-80
2022/01/12 07:08:46;;;;;;;117.07;43.38;;;4.80;99.90;;;;;;5035689;28;20100;-79
2022/01/12 07:11:11;;;;;;;122.25;42.45;;;4.80;99.90;;;;;;5051120;28;20036;-80
2022/01/12 07:13:39;;;;;;;121.03;44.97;;;4.70;99.90;;;;;;5055442;28;20021;-80
2022/01/12 07:16:11;;;;;;;113.03;44.08;;;4.70;99.90;;;;;;5055621;28;20021;-79
2022/01/12 07:18:37;;;;;;;117.90;43.67;;;4.80;99.90;;;;;;5054904;28;20473;-79
2022/01/12 07:21:03;;;;;;;125.13;43.30;;;4.80;99.90;;;;;;5053267;28;20036;-79
2022/01/12 07:23:29;;;;;;;135.32;46.35;;;4.80;99.90;;;;;;5055111;28;20017;-79
2022/01/12 07:25:55;;;;;;;134.73;45.38;;;4.80;99.90;;;;;;5054217;28;20066;-80
2022/01/12 07:28:21;;;;;;;132.50;45.63;;;4.90;99.90;;;;;;5053320;28;20350;-79
2022/01/12 07:30:49;;;;;;;151.07;46.65;;;4.90;99.90;;;;;;5054503;28;20108;-79
2022/01/12 07:33:16;;;;;;;134.80;44.97;;;4.80;99.90;;;;;;5054978;28;20021;-79
2022/01/12 07:35:45;;;;;;;129.10;44.03;;;4.90;99.90;;;;;;5054877;28;20025;-79
2022/01/12 07:38:13;;;;;;;139.68;47.28;;;4.90;99.90;;;;;;5049260;28;20087;-79
2022/01/12 07:40:42;;;;;;;132.02;45.60;;;5.00;99.90;;;;;;5034985;28;20029;-79
2022/01/12 07:43:11;;;;;;;169.57;49.40;;;4.90;99.90;;;;;;5033902;28;20026;-79
2022/01/12 07:45:43;;;;;;;152.63;48.88;;;5.00;99.90;;;;;;5034924;28;20033;-79
2022/01/12 07:48:13;;;;;;;152.65;49.97;;;5.00;99.90;;;;;;5049794;28;20423;-79
2022/01/12 07:50:44;;;;;;;140.02;46.60;;;5.10;99.90;;;;;;5053350;28;20112;-79
2022/01/12 07:53:12;;;;;;;146.90;50.83;;;5.10;99.90;;;;;;5053667;28;20515;-80
2022/01/12 07:55:40;;;;;;;159.45;51.10;;;5.10;99.90;;;;;;5050379;28;20033;-80
2022/01/12 07:58:06;;;;;;;150.70;47.70;;;5.00;99.90;;;;;;5033269;28;20034;-79
2022/01/12 08:00:33;;;;;;;167.38;50.08;;;5.10;99.90;;;;;;5034649;28;20079;-79
2022/01/12 08:03:01;;;;;;;190.70;51.63;;;5.00;99.90;;;;;;5043072;28;20030;-79
2022/01/12 08:05:30;;;;;;;197.60;52.10;;;5.00;99.90;;;;;;5053266;28;20021;-79
2022/01/12 08:07:58;;;;;;;191.40;52.45;;;5.00;99.90;;;;;;5054500;28;20075;-79
2022/01/12 08:10:23;;;;;;;171.88;50.85;;;5.10;99.90;;;;;;5053024;28;20033;-79
2022/01/12 08:12:55;;;;;;;152.68;49.28;;;5.20;99.90;;;;;;5054368;28;20381;-79
2022/01/12 08:15:24;;;;;;;165.30;53.13;;;5.10;99.90;;;;;;5054266;28;20037;-84
2022/01/12 08:18:03;;;;;;;177.13;50.75;;;5.20;99.90;;;;;;5054339;28;20032;-79
2022/01/12 08:20:30;;;;;;;160.27;51.53;;;5.10;99.90;;;;;;5035156;28;20031;-79
2022/01/12 08:23:02;;;;;;;167.57;52.20;;;5.20;99.90;;;;;;5034237;28;20032;-79
2022/01/12 08:25:31;;;;;;;170.75;52.35;;;5.20;99.90;;;;;;5033074;28;20024;-79
2022/01/12 08:27:58;;;;;;;166.23;51.45;;;5.10;99.90;;;;;;5034290;28;20029;-79
2022/01/12 08:30:32;;;;;;;161.50;53.38;;;5.10;99.90;;;;;;5033874;28;20390;-79
2022/01/12 08:32:59;;;;;;;208.50;55.47;;;5.10;99.90;;;;;;5052844;28;20020;-79
2022/01/12 08:35:28;;;;;;;170.45;52.30;;;5.10;99.90;;;;;;5033997;28;20042;-78
2022/01/12 08:37:58;;;;;;;203.15;55.72;;;5.10;99.90;;;;;;5041409;28;20032;-79
2022/01/12 08:40:25;;;;;;;137.55;48.40;;;5.10;99.90;;;;;;5052715;28;20128;-79
2022/01/12 08:42:51;;;;;;;181.00;53.47;;;5.10;99.90;;;;;;5051709;28;20048;-78
2022/01/12 08:45:18;;;;;;;182.75;53.67;;;5.10;99.90;;;;;;5053574;28;20385;-78
2022/01/12 08:47:45;;;;;;;185.80;53.67;;;5.10;99.90;;;;;;5053639;28;20032;-78
2022/01/12 08:50:16;;;;;;;166.35;51.60;;;5.10;99.90;;;;;;5053782;28;20025;-79
2022/01/12 08:52:47;;;;;;;171.67;51.37;;;5.10;99.90;;;;;;5052401;28;20025;-79
2022/01/12 08:55:14;;;;;;;205.98;56.00;;;5.10;99.90;;;;;;5053232;28;20470;-78
2022/01/12 08:57:40;;;;;;;203.18;55.88;;;5.20;99.90;;;;;;5032540;28;20427;-78
2022/01/12 09:00:08;;;;;;;197.40;56.15;;;5.30;99.90;;;;;;5033489;28;20478;-79
2022/01/12 09:02:36;;;;;;;199.32;53.72;;;5.30;99.90;;;;;;5032336;28;20033;-79
2022/01/12 09:05:03;;;;;;;218.18;59.40;;;5.30;99.90;;;;;;5033277;28;20457;-78
2022/01/12 09:07:29;;;;;;;201.32;55.85;;;5.30;99.90;;;;;;5032819;28;20021;-78
2022/01/12 09:09:54;;;;;;;181.02;53.70;;;5.40;99.90;;;;;;5053014;28;20029;-78
2022/01/12 09:12:21;;;;;;;238.68;58.45;;;5.40;99.90;;;;;;5052837;28;20500;-79
2022/01/12 09:14:48;;;;;;;195.30;54.83;;;5.40;99.90;;;;;;5051742;28;20112;-79
2022/01/12 09:17:19;;;;;;;186.50;52.78;;;5.40;99.90;;;;;;5051779;28;20043;-78
2022/01/12 09:19:46;;;;;;;205.80;55.08;;;5.40;99.90;;;;;;5051631;28;20120;-78
2022/01/12 09:22:12;;;;;;;192.60;53.60;;;5.40;99.90;;;;;;5052549;28;20404;-78
2022/01/12 09:24:39;;;;;;;186.65;51.50;;;5.40;99.90;;;;;;5053013;28;20461;-78
2022/01/12 09:27:05;;;;;;;228.43;56.45;;;5.50;99.90;;;;;;5051891;28;20047;-78
2022/01/12 09:29:31;;;;;;;209.13;56.67;;;5.50;99.90;;;;;;5052895;28;20056;-78
2022/01/12 09:31:57;;;;;;;197.75;52.55;;;5.50;99.90;;;;;;5052828;28;20025;-79
2022/01/12 09:34:23;;;;;;;218.82;56.85;;;5.50;99.90;;;;;;5052747;28;20039;-79
2022/01/12 09:36:52;;;;;;;184.70;52.38;;;5.50;99.90;;;;;;5051738;28;20025;-79
2022/01/12 09:39:17;;;;;;;165.38;49.78;;;5.50;99.90;;;;;;5068227;28;20020;-79
2022/01/12 09:41:53;;;;;;;171.70;52.63;;;5.50;99.90;;;;;;5072460;28;20041;-79
2022/01/12 09:44:19;;;;;;;197.88;52.88;;;5.40;99.90;;;;;;5050593;28;20029;-79
2022/01/12 09:46:46;;;;;;;163.50;48.40;;;5.40;99.90;;;;;;5068271;28;20036;-79
2022/01/12 09:49:13;;;;;;;167.30;51.53;;;5.50;99.90;;;;;;5064274;28;20036;-78
2022/01/12 09:51:41;;;;;;;163.48;48.10;;;5.50;99.90;;;;;;5051120;28;20032;-79
2022/01/12 09:54:06;;;;;;;213.30;53.53;;;5.60;99.90;;;;;;5062409;28;20024;-78
2022/01/12 09:56:32;;;;;;;185.00;52.58;;;5.40;99.90;;;;;;5054773;28;20531;-79
2022/01/12 09:59:01;;;;;;;194.48;54.20;;;5.60;99.90;;;;;;5054225;28;20017;-79
2022/01/12 10:01:28;;;;;;;199.68;56.15;;;5.50;99.90;;;;;;5053039;28;20018;-79
2022/01/12 10:04:10;;;;;;;226.63;58.33;;;5.60;99.90;;;;;;5054520;28;20052;-79
2022/01/12 10:06:38;;;;;;;203.63;55.40;;;5.60;99.90;;;;;;5055090;28;20013;-80
2022/01/12 10:09:07;;;;;;;215.70;56.28;;;5.60;99.90;;;;;;5054923;28;20017;-79
2022/01/12 10:11:33;;;;;;;176.52;51.70;;;5.60;99.90;;;;;;5056128;28;20166;-78
2022/01/12 10:14:02;;;;;;;168.85;48.58;;;5.60;99.90;;;;;;5056498;28;20044;-78
2022/01/12 10:16:29;;;;;;;199.60;53.95;;;5.70;99.90;;;;;;5055735;28;20021;-78
2022/01/12 10:19:00;;;;;;;178.75;52.42;;;5.70;99.90;;;;;;5054826;28;20557;-80
2022/01/12 10:21:37;;;;;;;152.15;49.88;;;5.80;99.90;;;;;;5056649;28;20105;-79
2022/01/12 10:24:11;;;;;;;151.10;45.30;;;5.80;99.90;;;;;;5054948;28;20025;-79
2022/01/12 10:26:43;;;;;;;164.10;44.85;;;5.80;99.90;;;;;;5047241;28;20036;-79
2022/01/12 10:29:21;;;;;;;147.30;44.73;;;5.80;99.90;;;;;;5043191;28;20074;-79
2022/01/12 10:32:02;;;;;;;129.88;42.63;;;5.70;99.90;;;;;;5052539;28;20374;-78
2022/01/12 10:34:43;;;;;;;152.57;42.85;;;5.90;99.90;;;;;;5055905;28;20029;-78
2022/01/12 10:37:17;;;;;;;198.32;50.28;;;5.90;99.90;;;;;;5054436;28;20057;-78
2022/01/12 10:39:50;;;;;;;143.13;44.50;;;6.00;99.90;;;;;;5054093;28;20029;-79
2022/01/12 10:42:23;;;;;;;174.15;48.20;;;5.90;99.90;;;;;;5053737;28;20025;-78
2022/01/12 10:44:55;;;;;;;161.18;46.00;;;5.90;99.90;;;;;;5054421;28;20043;-78
2022/01/12 10:47:24;;;;;;;161.25;42.60;;;5.90;99.90;;;;;;5055525;28;20021;-78
2022/01/12 10:50:06;;;;;;;144.77;42.58;;;5.90;99.90;;;;;;5051789;28;20021;-79
2022/01/12 10:52:47;;;;;;;142.88;41.50;;;5.90;99.90;;;;;;5035663;28;20026;-78
2022/01/12 10:55:15;;;;;;;144.18;39.65;;;6.00;99.90;;;;;;5053407;28;20009;-79
2022/01/12 10:57:45;;;;;;;122.35;38.33;;;6.00;99.90;;;;;;5070680;28;20064;-79
2022/01/12 11:00:26;;;;;;;149.70;42.13;;;6.00;99.90;;;;;;5038478;28;20064;-79
2022/01/12 11:02:59;;;;;;;130.65;40.83;;;6.10;99.90;;;;;;5047063;28;20086;-79
2022/01/12 11:05:32;;;;;;;155.68;42.55;;;6.10;99.90;;;;;;5047733;28;20485;-79
2022/01/12 11:08:00;;;;;;;155.07;40.95;;;6.10;99.90;;;;;;5055187;28;20017;-79
2022/01/12 11:10:27;;;;;;;130.93;39.58;;;6.10;99.90;;;;;;5052825;28;20378;-79
2022/01/12 11:12:56;;;;;;;137.02;41.42;;;6.00;99.90;;;;;;5053910;28;20362;-79
2022/01/12 11:15:24;;;;;;;163.77;43.10;;;6.10;99.90;;;;;;5054924;28;20378;-79
2022/01/12 11:17:52;;;;;;;134.82;42.13;;;6.00;99.90;;;;;;5061442;28;20025;-79
2022/01/12 11:20:25;;;;;;;137.52;42.72;;;6.10;99.90;;;;;;5074843;28;20036;-79
2022/01/12 11:23:11;;;;;;;130.68;42.38;;;6.10;99.90;;;;;;5070702;28;20036;-80
2022/01/12 11:25:52;;;;;;;138.75;42.75;;;6.20;99.90;;;;;;5057229;28;20029;-78
2022/01/12 11:28:19;;;;;;;143.48;44.25;;;6.20;99.90;;;;;;5052909;28;20016;-78
2022/01/12 11:30:51;;;;;;;164.60;47.63;;;6.20;99.90;;;;;;5053493;28;20047;-79
2022/01/12 11:33:35;;;;;;;147.53;45.50;;;6.20;99.90;;;;;;5053612;28;20560;-79
2022/01/12 11:36:13;;;;;;;144.02;43.88;;;6.10;99.90;;;;;;5053332;28;20025;-79
2022/01/12 11:38:40;;;;;;;152.68;44.90;;;6.20;99.90;;;;;;5060014;28;20063;-79
2022/01/12 11:41:15;;;;;;;184.88;48.38;;;6.20;99.90;;;;;;5054446;28;20100;-79
2022/01/12 11:44:02;;;;;;;182.98;48.70;;;6.10;99.90;;;;;;5053558;28;20047;-79
2022/01/12 11:46:45;;;;;;;198.13;49.75;;;6.20;99.90;;;;;;5054721;28;20428;-79
2022/01/12 11:49:25;;;;;;;185.30;49.40;;;6.20;99.90;;;;;;5064530;28;20538;-79
2022/01/12 11:51:50;;;;;;;176.48;49.75;;;6.20;99.90;;;;;;5050096;28;20014;-79
2022/01/12 11:54:19;;;;;;;176.70;49.97;;;6.20;99.90;;;;;;5034218;28;20057;-79
2022/01/12 11:56:54;;;;;;;419.88;68.07;;;6.30;99.90;;;;;;5049731;28;20021;-79
2022/01/12 11:59:21;;;;;;;200.98;48.03;;;6.20;99.90;;;;;;5054353;28;20033;-79
2022/01/12 12:01:51;;;;;;;206.50;52.65;;;6.20;99.90;;;;;;5054247;28;20367;-79
2022/01/12 12:04:26;;;;;;;222.15;49.30;;;6.20;99.90;;;;;;5070700;28;20025;-79
2022/01/12 12:07:14;;;;;;;179.80;51.40;;;6.30;99.90;;;;;;5074181;28;20465;-80
2022/01/12 12:09:44;;;;;;;221.45;54.05;;;6.30;99.90;;;;;;5057178;28;20033;-79
2022/01/12 12:12:30;;;;;;;325.88;58.13;;;6.40;99.90;;;;;;5052560;28;20033;-79
2022/01/12 12:15:02;;;;;;;197.40;51.65;;;6.30;99.90;;;;;;5052689;28;20044;-79
2022/01/12 12:17:30;;;;;;;184.40;52.17;;;6.30;99.90;;;;;;5052521;28;20025;-80
2022/01/12 12:19:57;;;;;;;187.68;52.47;;;6.30;99.90;;;;;;5052099;28;20108;-80
2022/01/12 12:22:32;;;;;;;214.23;49.22;;;6.40;99.90;;;;;;5053435;28;20469;-79
2022/01/12 12:25:06;;;;;;;233.05;52.58;;;6.40;99.90;;;;;;5052294;28;20021;-77
2022/01/12 12:27:35;;;;;;;176.57;49.70;;;6.50;99.90;;;;;;5053275;28;20021;-79
2022/01/12 12:30:07;;;;;;;184.30;51.78;;;6.50;99.90;;;;;;5053533;28;20095;-80
2022/01/12 12:32:39;;;;;;;188.75;49.42;;;6.40;99.90;;;;;;5051880;28;20013;-79
2022/01/12 12:35:27;;;;;;;211.80;49.72;;;6.40;99.90;;;;;;5075264;28;20040;-78
2022/01/12 12:38:02;;;;;;;184.48;50.53;;;6.40;99.90;;;;;;5051956;28;20493;-79
2022/01/12 12:40:54;;;;;;;376.73;62.60;;;6.40;99.90;;;;;;5053315;28;20025;-79
2022/01/12 12:43:28;;;;;;;173.00;48.55;;;6.40;99.90;;;;;;5052247;28;20029;-79
2022/01/12 12:46:11;;;;;;;178.77;50.83;;;6.40;99.90;;;;;;5052239;28;20033;-79
2022/01/12 12:48:40;;;;;;;175.00;50.67;;;6.40;99.90;;;;;;5052158;28;20043;-79
2022/01/12 12:51:14;;;;;;;170.15;50.45;;;6.40;99.90;;;;;;5052898;28;20441;-79
2022/01/12 12:53:44;;;;;;;177.43;51.58;;;6.50;99.90;;;;;;5053479;28;20021;-79
2022/01/12 12:56:19;;;;;;;239.70;55.80;;;6.40;99.90;;;;;;5050338;28;20092;-79
2022/01/12 12:58:51;;;;;;;190.57;52.22;;;6.50;99.90;;;;;;5048647;28;20128;-79
2022/01/12 13:01:25;;;;;;;333.20;64.22;;;6.50;99.90;;;;;;5058275;28;20028;-79
2022/01/12 13:03:54;;;;;;;334.95;66.47;;;6.50;99.90;;;;;;5044149;28;20029;-79
2022/01/12 13:06:32;;;;;;;192.90;52.13;;;6.50;99.90;;;;;;5051396;28;20025;-80
2022/01/12 13:09:07;;;;;;;243.95;52.00;;;6.60;99.90;;;;;;5054076;28;20016;-80
2022/01/12 13:11:38;;;;;;;312.80;56.55;;;6.50;99.90;;;;;;5052171;28;20497;-80
2022/01/12 13:14:08;;;;;;;318.20;63.55;;;6.50;99.90;;;;;;5052723;28;20052;-80
2022/01/12 13:16:49;;;;;;;311.38;59.05;;;6.50;99.90;;;;;;5037799;28;20056;-80
2022/01/12 13:22:28;;;;;;;238.65;53.38;;;6.50;99.90;;;;;;5066614;28;20095;-79
2022/01/12 13:24:57;;;;;;;219.88;51.30;;;6.50;99.90;;;;;;5047921;28;20486;-80
2022/01/12 13:27:25;;;;;;;185.32;49.70;;;6.60;99.90;;;;;;5043456;28;20066;-80
2022/01/12 13:29:52;;;;;;;222.30;49.55;;;6.60;99.90;;;;;;5050664;28;20017;-80
2022/01/12 13:32:18;;;;;;;174.63;49.08;;;6.60;99.90;;;;;;5047733;28;20037;-79
2022/01/12 13:35:07;;;;;;;188.35;50.55;;;6.60;99.90;;;;;;5032329;28;20026;-79
2022/01/12 13:37:36;;;;;;;392.67;62.10;;;6.60;99.90;;;;;;5043270;28;20043;-79
2022/01/12 13:40:12;;;;;;;174.80;47.67;;;6.60;99.90;;;;;;5048618;28;20748;-79
2022/01/12 13:42:57;;;;;;;156.68;43.45;;;6.60;99.90;;;;;;5038147;28;20025;-79
2022/01/12 13:45:38;;;;;;;157.25;48.35;;;6.60;99.90;;;;;;5050118;28;20036;-79
2022/01/12 13:48:13;;;;;;;214.95;52.47;;;6.60;99.90;;;;;;5047187;28;20116;-79
2022/01/12 13:50:45;;;;;;;146.98;44.80;;;6.70;99.90;;;;;;5052119;28;20123;-79
2022/01/12 13:53:11;;;;;;;215.95;50.95;;;6.70;99.90;;;;;;5049096;28;20029;-79
2022/01/12 13:55:49;;;;;;;200.90;48.88;;;6.60;99.90;;;;;;5039409;28;20407;-79
2022/01/12 13:58:16;;;;;;;175.63;46.15;;;6.70;99.90;;;;;;5037745;28;20040;-79
2022/01/12 14:00:42;;;;;;;175.63;45.80;;;6.60;99.90;;;;;;5034054;28;20080;-79